createdAt,value
2018-07-14T00:02:25.122Z,6.87
2018-07-14T00:04:53.599Z,6.87
2018-07-14T00:07:22.091Z,6.87
2018-07-14T00:09:50.651Z,7.07
2018-07-14T00:12:19.139Z,6.77
2018-07-14T00:14:47.625Z,7.23
2018-07-14T00:17:16.311Z,6.33
2018-07-14T00:19:44.847Z,6.80
2018-07-14T00:22:13.488Z,6.47
2018-07-14T00:24:42.110Z,6.50
2018-07-14T00:27:10.618Z,7.63
2018-07-14T00:29:39.111Z,7.43
2018-07-14T00:32:07.942Z,6.50
2018-07-14T00:34:36.444Z,6.30
2018-07-14T00:37:05.136Z,7.73
2018-07-14T00:39:33.588Z,6.87
2018-07-14T00:42:02.105Z,6.87
2018-07-14T00:44:30.700Z,7.07
2018-07-14T00:46:59.190Z,7.10
2018-07-14T00:49:27.667Z,6.60
2018-07-14T00:51:56.169Z,6.80
2018-07-14T00:54:24.840Z,7.23
2018-07-14T00:56:53.346Z,7.17
2018-07-14T00:59:21.843Z,8.13
2018-07-14T01:01:50.304Z,7.00
2018-07-14T01:04:18.748Z,6.73
2018-07-14T01:06:47.499Z,7.30
2018-07-14T01:09:16.007Z,7.70
2018-07-14T01:11:44.495Z,7.47
2018-07-14T01:14:13.444Z,7.17
2018-07-14T01:16:42.101Z,8.20
2018-07-14T01:19:10.654Z,6.93
2018-07-14T01:21:39.113Z,6.57
2018-07-14T01:24:07.578Z,7.40
2018-07-14T01:26:36.175Z,7.77
2018-07-14T01:29:04.746Z,6.90
2018-07-14T01:31:33.244Z,7.60
2018-07-14T01:34:01.705Z,8.20
2018-07-14T01:36:30.187Z,8.33
2018-07-14T01:38:58.636Z,7.10
2018-07-14T01:41:27.084Z,7.57
2018-07-14T01:43:55.562Z,8.37
2018-07-14T01:46:24.044Z,7.80
2018-07-14T01:48:52.576Z,7.80
2018-07-14T01:51:21.044Z,7.63
2018-07-14T01:53:49.510Z,7.90
2018-07-14T01:56:17.962Z,7.53
2018-07-14T01:58:46.477Z,7.50
2018-07-14T02:01:14.936Z,6.97
2018-07-14T02:03:43.463Z,7.87
2018-07-14T02:06:11.897Z,7.50
2018-07-14T02:08:40.395Z,7.53
2018-07-14T02:11:08.878Z,7.67
2018-07-14T02:13:37.054Z,7.47
2018-07-14T02:16:05.534Z,7.07
2018-07-14T02:18:33.991Z,7.20
2018-07-14T02:21:02.473Z,8.20
2018-07-14T02:23:30.951Z,8.40
2018-07-14T02:25:59.463Z,7.90
2018-07-14T02:28:27.903Z,6.77
2018-07-14T02:30:56.515Z,7.53
2018-07-14T02:33:25.753Z,8.20
2018-07-14T02:35:54.246Z,8.07
2018-07-14T02:38:22.722Z,7.77
2018-07-14T02:40:52.193Z,7.33
2018-07-14T02:43:20.669Z,8.83
2018-07-14T02:45:49.167Z,7.97
2018-07-14T02:48:17.611Z,7.80
2018-07-14T02:50:46.549Z,8.80
2018-07-14T02:53:14.694Z,8.43
2018-07-14T02:55:43.243Z,7.73
2018-07-14T02:58:11.724Z,7.10
2018-07-14T03:00:40.244Z,7.93
2018-07-14T03:03:08.782Z,7.97
2018-07-14T03:05:37.238Z,7.63
2018-07-14T03:08:05.726Z,7.60
2018-07-14T03:10:34.205Z,7.87
2018-07-14T03:13:02.701Z,7.87
2018-07-14T03:15:31.163Z,7.60
2018-07-14T03:17:59.623Z,8.80
2018-07-14T03:20:28.077Z,8.40
2018-07-14T03:22:56.555Z,7.13
2018-07-14T03:25:25.002Z,8.77
2018-07-14T03:27:53.549Z,8.20
2018-07-14T03:30:22.071Z,7.73
2018-07-14T03:32:50.548Z,8.70
2018-07-14T03:35:19.028Z,7.60
2018-07-14T03:37:47.690Z,7.53
2018-07-14T03:40:16.225Z,8.00
2018-07-14T03:42:44.678Z,7.97
2018-07-14T03:45:13.215Z,7.37
2018-07-14T03:47:41.682Z,7.83
2018-07-14T03:50:10.173Z,7.33
2018-07-14T03:52:38.723Z,8.30
2018-07-14T03:55:08.005Z,7.57
2018-07-14T03:57:36.551Z,7.47
2018-07-14T04:00:05.567Z,7.70
2018-07-14T04:02:34.263Z,8.30
2018-07-14T04:05:02.760Z,8.27
2018-07-14T04:07:31.269Z,9.23
2018-07-14T04:09:59.710Z,9.07
2018-07-14T04:12:27.893Z,9.13
2018-07-14T04:14:56.362Z,9.43
2018-07-14T04:17:24.859Z,8.00
2018-07-14T04:19:53.415Z,8.97
2018-07-14T04:22:21.898Z,9.00
2018-07-14T04:24:50.346Z,8.90
2018-07-14T04:27:18.829Z,9.40
2018-07-14T04:29:47.322Z,7.67
2018-07-14T04:32:15.803Z,8.73
2018-07-14T04:34:44.264Z,8.43
2018-07-14T04:37:12.735Z,8.70
2018-07-14T04:39:41.213Z,8.97
2018-07-14T04:42:09.764Z,8.30
2018-07-14T04:44:38.223Z,9.33
2018-07-14T04:47:06.825Z,8.10
2018-07-14T04:49:35.322Z,8.70
2018-07-14T04:52:03.850Z,8.27
2018-07-14T04:54:32.536Z,9.53
2018-07-14T04:57:01.000Z,8.97
2018-07-14T04:59:29.455Z,8.77
2018-07-14T05:01:57.906Z,8.93
2018-07-14T05:04:26.402Z,9.10
2018-07-14T05:06:54.868Z,8.70
2018-07-14T05:09:23.340Z,8.93
2018-07-14T05:11:51.795Z,9.20
2018-07-14T05:14:20.264Z,9.70
2018-07-14T05:16:48.804Z,9.20
2018-07-14T05:19:17.285Z,9.27
2018-07-14T05:21:45.763Z,8.77
2018-07-14T05:24:14.285Z,9.60
2018-07-14T05:26:42.848Z,9.47
2018-07-14T05:29:11.333Z,9.50
2018-07-14T05:31:39.807Z,8.93
2018-07-14T05:34:08.251Z,8.77
2018-07-14T05:36:37.084Z,8.50
2018-07-14T05:39:06.505Z,8.73
2018-07-14T05:41:34.960Z,9.00
2018-07-14T05:44:03.483Z,8.87
2018-07-14T05:46:31.986Z,10.30
2018-07-14T05:49:00.466Z,10.07
2018-07-14T05:51:28.932Z,9.40
2018-07-14T05:53:57.427Z,9.83
2018-07-14T05:56:25.914Z,9.57
2018-07-14T05:58:54.392Z,8.50
2018-07-14T06:01:22.947Z,8.47
2018-07-14T06:03:51.440Z,9.00
2018-07-14T06:06:19.899Z,9.17
2018-07-14T06:08:48.404Z,9.90
2018-07-14T06:11:17.226Z,9.70
2018-07-14T06:13:46.958Z,9.90
2018-07-14T06:16:15.485Z,9.07
2018-07-14T06:18:43.909Z,8.27
2018-07-14T06:21:12.525Z,8.50
2018-07-14T06:23:41.003Z,8.37
2018-07-14T06:26:09.704Z,8.03
2018-07-14T06:28:40.140Z,7.97
2018-07-14T06:31:08.639Z,7.70
2018-07-14T06:33:37.151Z,6.93
2018-07-14T06:36:05.706Z,7.90
2018-07-14T06:38:34.218Z,7.17
2018-07-14T06:41:02.810Z,6.57
2018-07-14T06:43:31.280Z,7.07
2018-07-14T06:45:59.799Z,5.83
2018-07-14T06:48:28.407Z,6.20
2018-07-14T06:50:56.942Z,6.83
2018-07-14T06:53:25.545Z,6.13
2018-07-14T06:55:53.986Z,6.50
2018-07-14T06:58:22.443Z,6.90
2018-07-14T07:00:50.913Z,6.73
2018-07-14T07:03:19.465Z,7.17
2018-07-14T07:05:47.960Z,6.60
2018-07-14T07:08:16.569Z,5.57
2018-07-14T07:10:45.124Z,6.47
2018-07-14T07:13:13.659Z,5.70
2018-07-14T07:15:42.161Z,5.90
2018-07-14T07:18:10.804Z,5.50
2018-07-14T07:20:39.272Z,5.07
2018-07-14T07:23:07.791Z,5.83
2018-07-14T07:25:36.362Z,4.80
2018-07-14T07:28:04.923Z,5.23
2018-07-14T07:30:33.453Z,5.10
2018-07-14T07:33:01.925Z,4.90
2018-07-14T07:35:30.408Z,5.37
2018-07-14T07:37:58.918Z,4.57
2018-07-14T07:40:27.553Z,5.20
2018-07-14T07:42:56.092Z,4.80
2018-07-14T07:45:24.632Z,4.80
2018-07-14T07:47:53.106Z,4.77
2018-07-14T07:50:21.605Z,4.93
2018-07-14T07:52:50.097Z,4.53
2018-07-14T07:55:18.551Z,4.70
2018-07-14T07:57:47.167Z,4.30
2018-07-14T08:00:15.615Z,4.60
2018-07-14T08:02:44.096Z,4.00
2018-07-14T08:05:12.645Z,4.27
2018-07-14T08:07:41.195Z,4.50
2018-07-14T08:10:09.398Z,4.00
2018-07-14T08:12:39.398Z,4.10
2018-07-14T08:15:08.003Z,4.17
2018-07-14T08:17:36.544Z,3.70
2018-07-14T08:20:05.401Z,5.00
2018-07-14T08:22:34.296Z,4.80
2018-07-14T08:25:02.979Z,4.77
2018-07-14T08:27:31.488Z,4.07
2018-07-14T08:29:59.979Z,4.07
2018-07-14T08:32:28.864Z,4.50
2018-07-14T08:35:00.147Z,3.63
2018-07-14T08:37:29.700Z,3.87
2018-07-14T08:39:58.173Z,4.23
2018-07-14T08:42:26.740Z,4.17
2018-07-14T08:44:55.292Z,3.80
2018-07-14T08:47:23.805Z,3.60
2018-07-14T08:49:52.343Z,3.50
2018-07-14T08:52:20.863Z,3.70
2018-07-14T08:54:49.644Z,3.40
2018-07-14T08:57:18.174Z,3.30
2018-07-14T08:59:47.467Z,3.70
2018-07-14T09:02:15.956Z,3.30
2018-07-14T09:04:44.630Z,3.37
2018-07-14T09:07:13.169Z,3.40
2018-07-14T09:09:41.691Z,3.63
2018-07-14T09:12:10.215Z,3.67
2018-07-14T09:14:38.902Z,4.30
2018-07-14T09:17:07.747Z,3.73
2018-07-14T09:19:36.935Z,3.00
2018-07-14T09:22:06.097Z,3.53
2018-07-14T09:24:34.840Z,2.80
2018-07-14T09:27:03.372Z,2.97
2018-07-14T09:29:31.923Z,3.60
2018-07-14T09:32:00.539Z,3.23
2018-07-14T09:34:29.202Z,3.20
2018-07-14T09:36:57.709Z,3.33
2018-07-14T09:39:26.493Z,3.73
2018-07-14T09:41:55.147Z,3.87
2018-07-14T09:44:23.680Z,3.47
2018-07-14T09:46:52.349Z,4.13
2018-07-14T09:49:20.945Z,3.63
2018-07-14T09:51:49.258Z,3.77
2018-07-14T09:54:18.145Z,4.27
2018-07-14T09:56:46.671Z,4.50
2018-07-14T09:59:15.256Z,4.40
2018-07-14T10:01:43.977Z,4.40
2018-07-14T10:04:12.197Z,5.00
2018-07-14T10:06:40.889Z,4.80
2018-07-14T10:09:09.489Z,4.50
2018-07-14T10:11:37.971Z,4.43
2018-07-14T10:14:06.446Z,4.57
2018-07-14T10:16:35.020Z,4.50
2018-07-14T10:19:03.550Z,5.20
2018-07-14T10:21:32.106Z,4.73
2018-07-14T10:24:00.592Z,4.80
2018-07-14T10:26:29.088Z,5.10
2018-07-14T10:28:57.723Z,5.30
2018-07-14T10:31:26.265Z,5.20
2018-07-14T10:33:54.841Z,5.70
2018-07-14T10:36:23.347Z,4.80
2018-07-14T10:38:52.065Z,5.00
2018-07-14T10:41:20.605Z,5.07
2018-07-14T10:43:48.786Z,5.50
2018-07-14T10:46:17.341Z,5.47
2018-07-14T10:48:45.992Z,5.90
2018-07-14T10:51:14.541Z,5.37
2018-07-14T10:53:43.115Z,5.23
2018-07-14T10:56:11.607Z,4.97
2018-07-14T10:58:40.791Z,4.70
2018-07-14T11:01:09.390Z,4.53
2018-07-14T11:03:38.007Z,5.73
2018-07-14T11:06:07.152Z,4.80
2018-07-14T11:08:35.655Z,4.70
2018-07-14T11:11:04.860Z,4.67
2018-07-14T11:13:33.023Z,4.33
2018-07-14T11:16:01.566Z,3.93
2018-07-14T11:18:31.691Z,5.13
2018-07-14T11:21:00.324Z,4.77
2018-07-14T11:23:28.830Z,4.00
2018-07-14T11:25:57.479Z,4.27
2018-07-14T11:28:26.134Z,4.50
2018-07-14T11:30:54.754Z,4.20
2018-07-14T11:33:23.281Z,4.63
2018-07-14T11:35:51.787Z,3.97
2018-07-14T11:38:20.393Z,4.30
2018-07-14T11:40:48.928Z,4.10
2018-07-14T11:43:17.495Z,4.30
2018-07-14T11:45:46.125Z,4.67
2018-07-14T11:48:14.602Z,3.67
2018-07-14T11:50:43.221Z,4.90
2018-07-14T11:53:11.672Z,4.20
2018-07-14T11:55:40.192Z,4.80
2018-07-14T11:58:08.718Z,4.50
2018-07-14T12:00:37.245Z,3.67
2018-07-14T12:03:05.958Z,4.37
2018-07-14T12:05:34.562Z,4.03
2018-07-14T12:08:03.046Z,4.50
2018-07-14T12:10:31.636Z,4.20
2018-07-14T12:13:00.133Z,3.97
2018-07-14T12:15:28.710Z,4.10
2018-07-14T12:17:57.166Z,3.77
2018-07-14T12:20:25.738Z,4.10
2018-07-14T12:22:54.222Z,3.93
2018-07-14T12:25:22.737Z,3.47
2018-07-14T12:27:51.330Z,3.80
2018-07-14T12:30:19.876Z,4.63
2018-07-14T12:32:48.400Z,4.40
2018-07-14T12:35:16.939Z,4.00
2018-07-14T12:37:46.200Z,3.87
2018-07-14T12:40:14.715Z,4.30
2018-07-14T12:42:43.212Z,3.50
2018-07-14T12:45:11.731Z,3.30
2018-07-14T12:47:40.330Z,3.43
2018-07-14T12:50:09.311Z,3.47
2018-07-14T12:52:38.248Z,3.47
2018-07-14T12:55:06.949Z,4.03
2018-07-14T12:57:35.527Z,3.33
2018-07-14T13:00:05.274Z,3.50
2018-07-14T13:02:33.727Z,4.17
2018-07-14T13:05:02.539Z,3.57
2018-07-14T13:07:31.172Z,3.13
2018-07-14T13:09:59.755Z,3.50
2018-07-14T13:12:28.400Z,3.83
2018-07-14T13:14:56.926Z,3.50
2018-07-14T13:17:25.524Z,3.80
2018-07-14T13:19:53.987Z,4.40
2018-07-14T13:22:22.581Z,3.23
2018-07-14T13:24:51.371Z,3.83
2018-07-14T13:27:19.906Z,3.07
2018-07-14T13:29:48.438Z,3.53
2018-07-14T13:32:17.035Z,3.57
2018-07-14T13:34:45.357Z,3.97
2018-07-14T13:37:13.976Z,3.60
2018-07-14T13:39:42.650Z,3.67
2018-07-14T13:42:11.191Z,3.43
2018-07-14T13:44:39.742Z,3.10
2018-07-14T13:47:08.307Z,3.50
2018-07-14T13:49:36.871Z,2.73
2018-07-14T13:52:05.571Z,3.30
2018-07-14T13:54:34.478Z,3.93
2018-07-14T13:57:03.186Z,3.03
2018-07-14T13:59:31.717Z,3.43
2018-07-14T14:02:00.556Z,3.60
2018-07-14T14:04:29.145Z,3.53
2018-07-14T14:06:58.063Z,3.93
2018-07-14T14:09:27.430Z,3.30
2018-07-14T14:11:56.460Z,3.33
2018-07-14T14:14:25.549Z,2.93
2018-07-14T14:16:54.121Z,3.37
2018-07-14T14:19:22.689Z,2.90
2018-07-14T14:21:51.285Z,3.27
2018-07-14T14:24:20.248Z,2.93
2018-07-14T14:26:48.783Z,3.80
2018-07-14T14:29:17.278Z,3.10
2018-07-14T14:31:45.922Z,3.20
2018-07-14T14:34:14.466Z,3.40
2018-07-14T14:36:43.140Z,3.80
2018-07-14T14:39:11.900Z,4.00
2018-07-14T14:41:40.524Z,4.43
2018-07-14T14:44:09.068Z,4.40
2018-07-14T14:46:38.465Z,3.93
2018-07-14T14:49:07.024Z,3.57
2018-07-14T14:51:35.614Z,3.67
2018-07-14T14:54:04.180Z,3.40
2018-07-14T14:56:32.778Z,4.20
2018-07-14T14:59:01.372Z,3.83
2018-07-14T15:01:29.919Z,3.90
2018-07-14T15:03:58.411Z,4.03
2018-07-14T15:06:27.231Z,3.57
2018-07-14T15:08:55.777Z,4.27
2018-07-14T15:11:24.528Z,3.93
2018-07-14T15:13:53.039Z,3.70
2018-07-14T15:16:21.636Z,3.40
2018-07-14T15:18:50.164Z,3.90
2018-07-14T15:21:18.747Z,3.47
2018-07-14T15:23:47.215Z,3.90
2018-07-14T15:26:15.731Z,3.50
2018-07-14T15:28:44.249Z,4.77
2018-07-14T15:31:12.780Z,3.80
2018-07-14T15:33:41.545Z,3.70
2018-07-14T15:36:10.140Z,4.77
2018-07-14T15:38:38.720Z,6.43
2018-07-14T15:41:07.478Z,6.30
2018-07-14T15:43:36.011Z,4.67
2018-07-14T15:46:04.504Z,4.03
2018-07-14T15:48:33.175Z,3.90
2018-07-14T15:51:01.808Z,4.17
2018-07-14T15:53:30.469Z,4.03
2018-07-14T15:55:59.175Z,3.60
2018-07-14T15:58:27.881Z,3.53
2018-07-14T16:00:56.486Z,4.10
2018-07-14T16:03:24.998Z,4.00
2018-07-14T16:05:53.544Z,4.00
2018-07-14T16:08:22.093Z,3.70
2018-07-14T16:10:50.836Z,3.50
2018-07-14T16:13:19.419Z,3.60
2018-07-14T16:15:47.908Z,4.20
2018-07-14T16:18:16.433Z,3.20
2018-07-14T16:20:44.925Z,4.50
2018-07-14T16:23:13.595Z,3.90
2018-07-14T16:25:42.157Z,3.90
2018-07-14T16:28:10.687Z,4.50
2018-07-14T16:30:39.315Z,11.37
2018-07-14T16:33:07.789Z,4.63
2018-07-14T16:35:36.451Z,4.70
2018-07-14T16:38:05.187Z,5.17
2018-07-14T16:40:33.665Z,7.80
2018-07-14T16:43:02.140Z,7.37
2018-07-14T16:45:30.746Z,4.53
2018-07-14T16:47:59.312Z,4.40
2018-07-14T16:50:27.993Z,4.33
2018-07-14T16:52:56.529Z,8.63
2018-07-14T16:55:25.495Z,4.80
2018-07-14T16:57:54.030Z,5.30
2018-07-14T17:00:22.727Z,5.20
2018-07-14T17:02:51.440Z,5.80
2018-07-14T17:05:20.136Z,6.87
2018-07-14T17:07:48.643Z,6.60
2018-07-14T17:10:17.233Z,5.80
2018-07-14T17:12:45.719Z,5.70
2018-07-14T17:15:14.350Z,5.10
2018-07-14T17:17:42.963Z,4.40
2018-07-14T17:20:11.458Z,5.43
2018-07-14T17:22:39.929Z,3.90
2018-07-14T17:25:08.450Z,5.20
2018-07-14T17:27:36.943Z,4.90
2018-07-14T17:30:05.671Z,4.70
2018-07-14T17:32:34.197Z,4.90
2018-07-14T17:35:02.702Z,4.70
2018-07-14T17:37:31.184Z,4.90
2018-07-14T17:39:59.637Z,5.43
2018-07-14T17:42:28.136Z,4.60
2018-07-14T17:44:56.803Z,4.77
2018-07-14T17:47:25.415Z,5.00
2018-07-14T17:49:53.887Z,5.30
2018-07-14T17:52:22.425Z,5.67
2018-07-14T17:54:50.931Z,5.80
2018-07-14T17:57:19.401Z,5.20
2018-07-14T17:59:47.977Z,5.03
2018-07-14T18:02:16.518Z,5.13
2018-07-14T18:04:45.008Z,4.90
2018-07-14T18:07:13.571Z,5.47
2018-07-14T18:09:42.091Z,5.30
2018-07-14T18:12:10.781Z,5.50
2018-07-14T18:14:39.289Z,5.40
2018-07-14T18:17:07.855Z,5.70
2018-07-14T18:19:36.542Z,5.43
2018-07-14T18:22:05.128Z,5.73
2018-07-14T18:24:33.879Z,6.13
2018-07-14T18:27:02.397Z,6.00
2018-07-14T18:29:30.902Z,6.70
2018-07-14T18:31:59.468Z,6.93
2018-07-14T18:34:28.006Z,7.03
2018-07-14T18:36:56.495Z,7.20
2018-07-14T18:39:25.162Z,6.70
2018-07-14T18:41:53.738Z,6.00
2018-07-14T18:44:22.241Z,5.43
2018-07-14T18:46:50.858Z,5.80
2018-07-14T18:49:19.397Z,5.70
2018-07-14T18:51:48.109Z,4.87
2018-07-14T18:54:16.654Z,5.10
2018-07-14T18:56:45.109Z,4.90
2018-07-14T18:59:13.763Z,5.80
2018-07-14T19:01:42.340Z,5.20
2018-07-14T19:04:10.779Z,4.57
2018-07-14T19:06:39.253Z,5.10
2018-07-14T19:09:07.999Z,5.87
2018-07-14T19:11:36.433Z,5.80
2018-07-14T19:14:05.080Z,5.00
2018-07-14T19:16:33.585Z,5.30
2018-07-14T19:19:01.742Z,5.13
2018-07-14T19:21:30.433Z,5.53
2018-07-14T19:23:58.909Z,5.17
2018-07-14T19:26:27.515Z,4.80
2018-07-14T19:28:56.032Z,4.80
2018-07-14T19:31:24.570Z,4.80
2018-07-14T19:33:53.120Z,5.27
2018-07-14T19:36:22.052Z,5.27
2018-07-14T19:38:50.538Z,5.03
2018-07-14T19:41:19.112Z,5.27
2018-07-14T19:43:47.699Z,5.07
2018-07-14T19:46:16.228Z,5.40
2018-07-14T19:48:44.764Z,5.07
2018-07-14T19:51:13.438Z,4.77
2018-07-14T19:53:42.869Z,5.20
2018-07-14T19:56:11.392Z,5.20
2018-07-14T19:58:39.912Z,5.37
2018-07-14T20:01:08.465Z,5.67
2018-07-14T20:03:37.133Z,6.20
2018-07-14T20:06:05.892Z,6.07
2018-07-14T20:08:34.359Z,5.87
2018-07-14T20:11:02.939Z,5.73
2018-07-14T20:13:31.639Z,5.00
2018-07-14T20:16:00.202Z,5.70
2018-07-14T20:18:28.732Z,4.90
2018-07-14T20:20:57.680Z,5.63
2018-07-14T20:23:26.213Z,4.93
2018-07-14T20:25:54.705Z,5.30
2018-07-14T20:28:23.332Z,5.70
2018-07-14T20:30:51.813Z,6.90
2018-07-14T20:33:20.450Z,6.53
2018-07-14T20:35:49.130Z,6.97
2018-07-14T20:38:17.623Z,7.57
2018-07-14T20:40:46.176Z,7.93
2018-07-14T20:43:14.752Z,7.80
2018-07-14T20:45:43.257Z,8.77
2018-07-14T20:48:11.730Z,7.30
2018-07-14T20:50:40.489Z,8.00
2018-07-14T20:53:09.056Z,9.47
2018-07-14T20:55:37.703Z,8.43
2018-07-14T20:58:06.530Z,8.03
2018-07-14T21:00:34.983Z,8.80
2018-07-14T21:03:03.748Z,9.23
2018-07-14T21:05:32.366Z,10.20
2018-07-14T21:08:00.978Z,9.60
2018-07-14T21:10:29.472Z,10.00
2018-07-14T21:12:59.966Z,11.60
2018-07-14T21:15:28.611Z,11.10
2018-07-14T21:17:57.273Z,10.67
2018-07-14T21:20:25.791Z,10.63
2018-07-14T21:22:54.275Z,12.40
2018-07-14T21:25:22.956Z,12.70
2018-07-14T21:27:51.652Z,11.93
2018-07-14T21:30:20.130Z,11.57
2018-07-14T21:32:48.589Z,13.77
2018-07-14T21:35:17.104Z,13.00
2018-07-14T21:37:45.622Z,11.20
2018-07-14T21:40:14.246Z,11.47
2018-07-14T21:42:42.644Z,10.23
2018-07-14T21:45:11.224Z,11.37
2018-07-14T21:47:39.742Z,11.33
2018-07-14T21:50:08.231Z,11.07
2018-07-14T21:52:36.768Z,11.03
2018-07-14T21:55:05.544Z,10.50
2018-07-14T21:57:34.103Z,12.17
2018-07-14T22:00:02.642Z,12.73
2018-07-14T22:02:31.120Z,11.73
2018-07-14T22:04:59.657Z,12.77
2018-07-14T22:07:28.228Z,10.37
2018-07-14T22:09:56.650Z,9.97
2018-07-14T22:12:25.224Z,10.63
2018-07-14T22:14:53.888Z,9.73
2018-07-14T22:17:22.335Z,9.83
2018-07-14T22:19:50.834Z,8.33
2018-07-14T22:22:19.333Z,8.53
2018-07-14T22:24:47.814Z,9.17
2018-07-14T22:27:16.333Z,9.60
2018-07-14T22:29:44.800Z,10.50
2018-07-14T22:32:13.371Z,8.63
2018-07-14T22:34:41.963Z,9.47
2018-07-14T22:37:10.461Z,9.97
2018-07-14T22:39:39.063Z,9.63
2018-07-14T22:42:07.247Z,10.43
2018-07-14T22:44:35.424Z,9.30
2018-07-14T22:47:04.005Z,10.40
2018-07-14T22:49:32.670Z,10.43
2018-07-14T22:52:01.192Z,10.30
2018-07-14T22:54:29.684Z,10.43
2018-07-14T22:56:58.247Z,10.30
2018-07-14T22:59:26.752Z,10.73
2018-07-14T23:01:55.254Z,11.00
2018-07-14T23:04:23.831Z,11.87
2018-07-14T23:06:52.477Z,12.20
2018-07-14T23:09:20.941Z,10.87
2018-07-14T23:11:49.431Z,13.07
2018-07-14T23:14:17.590Z,12.00
2018-07-14T23:16:46.102Z,11.80
2018-07-14T23:19:14.756Z,12.70
2018-07-14T23:21:43.235Z,12.70
2018-07-14T23:24:11.837Z,11.90
2018-07-14T23:26:40.323Z,12.20
2018-07-14T23:29:08.938Z,12.60
2018-07-14T23:31:37.410Z,12.63
2018-07-14T23:34:05.556Z,12.30
2018-07-14T23:36:34.100Z,11.40
2018-07-14T23:39:02.638Z,10.80
2018-07-14T23:41:31.183Z,13.07
2018-07-14T23:43:59.658Z,10.93
2018-07-14T23:46:28.273Z,10.30
2018-07-14T23:48:56.758Z,10.87
2018-07-14T23:51:25.261Z,10.43
2018-07-14T23:53:53.763Z,12.03
2018-07-14T23:56:22.389Z,11.47
2018-07-14T23:58:51.136Z,12.37
